Time;durP1;ratioP1;P1;durP2;ratioP2;P2;SDS_P1;SDS_P2;PMS_P1;PMS_P2;Temp;Humidity;BMP_temperature;BMP_pressure;BME280_temperature;BME280_humidity;BME280_pressure;Samples;Min_cycle;Max_cycle;Signal;HPM_P1;HPM_P2
2023/05/26 00:01:28;;;;;;;25.17;4.80;;;;;;;;;;5004854;28;20473;-82
2023/05/26 00:03:57;;;;;;;18.33;4.40;;;;;;;;;;5003823;28;20470;-83
2023/05/26 00:06:24;;;;;;;13.33;3.80;;;;;;;;;;5003826;28;20544;-83
2023/05/26 00:08:51;;;;;;;26.23;5.03;;;;;;;;;;5005376;28;20492;-82
2023/05/26 00:11:20;;;;;;;18.63;3.70;;;;;;;;;;5007446;28;20477;-83
2023/05/26 00:13:47;;;;;;;24.00;4.50;;;;;;;;;;5008509;28;20454;-82
2023/05/26 00:16:15;;;;;;;17.93;4.20;;;;;;;;;;5004442;28;20531;-81
2023/05/26 00:18:42;;;;;;;12.27;3.90;;;;;;;;;;5008574;28;20491;-83
2023/05/26 00:21:09;;;;;;;12.97;3.60;;;;;;;;;;5005836;28;20454;-80
2023/05/26 00:23:37;;;;;;;22.83;6.30;;;;;;;;;;5007324;28;20527;-82
2023/05/26 00:26:04;;;;;;;18.07;3.60;;;;;;;;;;5005944;28;20461;-83
2023/05/26 00:28:33;;;;;;;25.03;5.00;;;;;;;;;;5008315;28;20499;-81
2023/05/26 00:31:00;;;;;;;25.40;5.63;;;;;;;;;;5005999;28;20465;-82
2023/05/26 00:33:28;;;;;;;18.43;3.93;;;;;;;;;;5008048;28;20457;-83
2023/05/26 00:35:55;;;;;;;13.93;4.30;;;;;;;;;;5004508;28;20519;-82
2023/05/26 00:38:22;;;;;;;18.97;4.33;;;;;;;;;;5008163;28;20452;-81
2023/05/26 00:40:50;;;;;;;14.97;4.80;;;;;;;;;;5004661;28;20484;-81
2023/05/26 00:43:18;;;;;;;12.27;4.70;;;;;;;;;;5010519;28;20691;-82
2023/05/26 00:45:46;;;;;;;15.33;4.47;;;;;;;;;;5007917;28;20491;-82
2023/05/26 00:48:14;;;;;;;14.57;4.07;;;;;;;;;;5009809;28;20448;-83
2023/05/26 00:50:41;;;;;;;17.13;4.50;;;;;;;;;;5010700;28;20443;-83
2023/05/26 00:53:09;;;;;;;14.17;4.03;;;;;;;;;;5011909;28;20491;-84
2023/05/26 00:55:37;;;;;;;16.30;4.90;;;;;;;;;;5005088;28;20471;-86
2023/05/26 00:58:05;;;;;;;15.07;3.77;;;;;;;;;;5010997;28;20908;-81
2023/05/26 01:00:32;;;;;;;17.10;4.50;;;;;;;;;;4994170;28;20468;-81
2023/05/26 01:03:02;;;;;;;11.57;3.87;;;;;;;;;;5012853;28;20449;-83
2023/05/26 01:05:29;;;;;;;18.90;4.97;;;;;;;;;;5010406;28;20480;-82
2023/05/26 01:07:56;;;;;;;17.57;5.33;;;;;;;;;;5006826;28;20580;-83
2023/05/26 01:10:27;;;;;;;14.60;4.40;;;;;;;;;;5010500;28;20467;-83
2023/05/26 01:12:58;;;;;;;13.50;3.20;;;;;;;;;;5010632;28;20456;-83
2023/05/26 01:15:28;;;;;;;17.10;3.63;;;;;;;;;;5009982;28;20461;-84
2023/05/26 01:17:58;;;;;;;17.47;4.17;;;;;;;;;;5009111;28;20445;-83
2023/05/26 01:20:30;;;;;;;17.17;4.00;;;;;;;;;;5008279;28;20926;-81
2023/05/26 01:23:12;;;;;;;12.20;4.00;;;;;;;;;;5012599;28;20464;-82
2023/05/26 01:25:51;;;;;;;17.90;4.50;;;;;;;;;;5010476;28;20463;-81
2023/05/26 01:28:21;;;;;;;19.50;3.80;;;;;;;;;;5009760;28;20895;-82
2023/05/26 01:30:49;;;;;;;11.50;3.93;;;;;;;;;;5012193;28;20499;-83
2023/05/26 01:33:17;;;;;;;17.70;4.30;;;;;;;;;;5007512;28;20488;-82
2023/05/26 01:35:44;;;;;;;16.07;4.20;;;;;;;;;;5013956;28;20479;-85
2023/05/26 01:38:12;;;;;;;16.97;4.33;;;;;;;;;;5008447;28;20452;-82
2023/05/26 01:40:40;;;;;;;17.03;4.93;;;;;;;;;;5012203;28;20452;-81
2023/05/26 01:43:13;;;;;;;20.23;6.00;;;;;;;;;;5010371;28;20453;-82
2023/05/26 01:45:45;;;;;;;18.77;4.10;;;;;;;;;;5013750;28;20452;-82
2023/05/26 01:48:13;;;;;;;13.10;3.13;;;;;;;;;;5011934;28;20461;-81
2023/05/26 01:50:42;;;;;;;9.30;3.27;;;;;;;;;;5009968;28;20449;-82
2023/05/26 01:53:12;;;;;;;22.27;3.97;;;;;;;;;;5010929;28;20447;-81
2023/05/26 01:55:40;;;;;;;12.70;3.70;;;;;;;;;;5009635;28;21009;-83
2023/05/26 01:58:07;;;;;;;17.03;4.77;;;;;;;;;;5010584;28;20452;-82
2023/05/26 02:00:35;;;;;;;12.17;3.50;;;;;;;;;;5012318;28;20487;-82
2023/05/26 02:03:05;;;;;;;13.83;3.70;;;;;;;;;;5006904;28;20459;-83
2023/05/26 02:10:44;;;;;;;14.97;3.60;;;;;;;;;;4335665;26;20989;-70
2023/05/26 02:13:11;;;;;;;22.33;4.23;;;;;;;;;;5001873;28;20867;-70
2023/05/26 02:15:38;;;;;;;20.90;5.23;;;;;;;;;;5000954;28;20500;-70
2023/05/26 02:18:10;;;;;;;17.33;6.03;;;;;;;;;;5000586;28;20843;-71
2023/05/26 02:20:38;;;;;;;11.80;3.50;;;;;;;;;;5002210;28;21076;-70
2023/05/26 02:23:05;;;;;;;16.77;4.70;;;;;;;;;;5000824;28;20449;-70
2023/05/26 02:25:33;;;;;;;22.53;5.47;;;;;;;;;;5003175;28;20500;-70
2023/05/26 02:28:00;;;;;;;20.10;3.97;;;;;;;;;;4988052;28;20911;-70
2023/05/26 02:30:28;;;;;;;14.63;3.13;;;;;;;;;;5000116;28;20496;-70
2023/05/26 02:33:03;;;;;;;10.40;3.47;;;;;;;;;;5000999;28;20460;-70
2023/05/26 02:35:35;;;;;;;13.53;3.20;;;;;;;;;;4999908;28;20475;-70
2023/05/26 02:38:03;;;;;;;11.33;3.70;;;;;;;;;;5001854;28;20562;-70
2023/05/26 02:40:33;;;;;;;11.80;3.50;;;;;;;;;;5000282;28;20464;-70
2023/05/26 02:43:00;;;;;;;16.33;4.30;;;;;;;;;;5001264;28;20480;-70
2023/05/26 02:45:31;;;;;;;10.10;2.57;;;;;;;;;;4999995;28;20555;-71
2023/05/26 07:09:40;;;;;;;13.27;3.90;;;;;;;;;;5022899;23;20498;-79
2023/05/26 07:12:09;;;;;;;12.43;3.67;;;;;;;;;;4967403;28;21153;-79
2023/05/26 07:14:52;;;;;;;16.40;4.37;;;;;;;;;;4978934;28;21818;-79
2023/05/26 07:17:20;;;;;;;21.23;4.07;;;;;;;;;;4982461;28;20489;-78
2023/05/26 07:19:49;;;;;;;16.10;3.97;;;;;;;;;;4981585;28;20477;-80
2023/05/26 07:22:17;;;;;;;19.10;3.87;;;;;;;;;;4983948;28;20803;-80
2023/05/26 07:24:45;;;;;;;15.23;4.23;;;;;;;;;;4977661;28;20457;-81
2023/05/26 07:27:24;;;;;;;8.90;3.10;;;;;;;;;;4986371;28;20825;-80
2023/05/26 07:29:56;;;;;;;19.07;3.47;;;;;;;;;;4992821;28;20524;-80
2023/05/26 07:32:24;;;;;;;12.70;4.03;;;;;;;;;;4981457;28;20465;-79
2023/05/26 07:34:56;;;;;;;18.70;4.33;;;;;;;;;;4981903;28;20537;-80
2023/05/26 07:37:29;;;;;;;11.03;3.00;;;;;;;;;;4985524;28;20482;-80
2023/05/26 07:39:59;;;;;;;10.83;2.50;;;;;;;;;;4988347;28;20557;-80
2023/05/26 07:42:27;;;;;;;15.70;4.17;;;;;;;;;;4984574;28;20471;-79
2023/05/26 07:45:04;;;;;;;14.83;3.37;;;;;;;;;;4983944;28;20466;-80
2023/05/26 07:47:32;;;;;;;17.40;3.53;;;;;;;;;;4984732;28;20484;-80
2023/05/26 07:49:59;;;;;;;13.40;3.07;;;;;;;;;;4985304;28;20469;-79
2023/05/26 07:52:28;;;;;;;13.17;2.90;;;;;;;;;;4977737;28;20469;-78
2023/05/26 07:54:59;;;;;;;17.13;3.90;;;;;;;;;;4978177;28;20584;-81
2023/05/26 07:57:27;;;;;;;12.70;2.83;;;;;;;;;;4980064;28;20489;-79
2023/05/26 07:59:55;;;;;;;10.13;2.63;;;;;;;;;;4978935;28;20895;-80
2023/05/26 08:05:13;;;;;;;15.10;3.10;;;;;;;;;;4985263;28;20601;-82
2023/05/26 08:07:40;;;;;;;14.20;2.63;;;;;;;;;;4977953;28;20529;-79
2023/05/26 08:10:10;;;;;;;16.30;3.70;;;;;;;;;;4981402;28;20465;-80
2023/05/26 08:12:41;;;;;;;11.63;3.00;;;;;;;;;;4979209;28;20552;-79
2023/05/26 08:15:14;;;;;;;27.53;5.37;;;;;;;;;;4980523;28;20445;-78
2023/05/26 08:17:42;;;;;;;9.23;2.97;;;;;;;;;;4987130;28;20513;-80
2023/05/26 08:20:10;;;;;;;13.83;3.33;;;;;;;;;;4992703;28;20461;-80
2023/05/26 08:22:38;;;;;;;15.40;3.47;;;;;;;;;;4976995;28;20488;-80
2023/05/26 08:25:10;;;;;;;14.73;3.20;;;;;;;;;;4977487;28;20493;-80
2023/05/26 08:27:44;;;;;;;12.30;2.97;;;;;;;;;;4980403;28;20463;-80
2023/05/26 08:30:19;;;;;;;19.20;4.93;;;;;;;;;;4979858;28;20460;-80
2023/05/26 08:32:51;;;;;;;17.03;3.60;;;;;;;;;;4975745;28;20468;-79
2023/05/26 08:35:23;;;;;;;18.20;5.90;;;;;;;;;;4968939;28;20510;-81
2023/05/26 08:38:00;;;;;;;11.83;3.70;;;;;;;;;;4982133;28;20571;-81
2023/05/26 08:40:28;;;;;;;14.40;2.93;;;;;;;;;;4978045;28;20726;-79
2023/05/26 08:43:00;;;;;;;12.77;3.90;;;;;;;;;;4980525;28;20453;-79
2023/05/26 08:45:28;;;;;;;13.67;3.37;;;;;;;;;;4986186;28;20733;-80
2023/05/26 08:48:00;;;;;;;23.07;4.00;;;;;;;;;;4980454;28;20485;-79
2023/05/26 08:50:30;;;;;;;11.47;3.60;;;;;;;;;;4984373;28;20456;-79
2023/05/26 08:52:58;;;;;;;18.37;3.70;;;;;;;;;;4978953;28;20458;-78
2023/05/26 08:55:26;;;;;;;13.40;3.57;;;;;;;;;;4982727;28;20533;-78
2023/05/26 08:57:53;;;;;;;18.17;3.73;;;;;;;;;;4989186;28;20527;-79
2023/05/26 09:00:22;;;;;;;16.27;4.13;;;;;;;;;;4991314;28;20473;-79
2023/05/26 09:02:50;;;;;;;8.93;3.23;;;;;;;;;;4984166;28;20496;-80
2023/05/26 09:05:18;;;;;;;10.10;3.50;;;;;;;;;;4987351;28;20457;-79
2023/05/26 09:07:45;;;;;;;13.13;3.20;;;;;;;;;;4984220;28;20452;-79
2023/05/26 09:10:30;;;;;;;13.17;3.00;;;;;;;;;;4983104;28;20470;-80
2023/05/26 09:13:05;;;;;;;10.43;3.47;;;;;;;;;;4982754;28;20493;-80
2023/05/26 09:15:37;;;;;;;14.70;3.43;;;;;;;;;;4983912;28;21076;-80
2023/05/26 09:20:48;;;;;;;16.13;4.00;;;;;;;;;;4976195;28;20604;-80
2023/05/26 09:23:16;;;;;;;16.03;3.30;;;;;;;;;;4988905;28;20556;-78
2023/05/26 09:25:47;;;;;;;10.30;3.23;;;;;;;;;;4987574;28;21037;-79
2023/05/26 09:28:15;;;;;;;12.67;3.20;;;;;;;;;;4987266;28;20473;-79
2023/05/26 09:30:45;;;;;;;10.23;3.20;;;;;;;;;;4976575;28;20493;-79
2023/05/26 09:33:14;;;;;;;12.07;2.83;;;;;;;;;;4996767;28;20456;-78
2023/05/26 09:35:45;;;;;;;11.37;3.10;;;;;;;;;;4988661;28;20506;-80
2023/05/26 09:38:14;;;;;;;17.23;3.50;;;;;;;;;;4984324;28;20481;-79
2023/05/26 09:40:42;;;;;;;13.97;2.90;;;;;;;;;;4983573;28;20445;-78
2023/05/26 09:43:10;;;;;;;11.17;2.70;;;;;;;;;;4985174;28;20532;-80
2023/05/26 09:45:38;;;;;;;9.77;2.80;;;;;;;;;;4985201;28;20918;-82
2023/05/26 09:48:08;;;;;;;12.70;2.80;;;;;;;;;;4984860;28;20462;-81
2023/05/26 09:50:36;;;;;;;9.17;2.80;;;;;;;;;;4981614;28;20490;-79
2023/05/26 09:53:04;;;;;;;13.13;3.20;;;;;;;;;;4983727;28;20480;-78
2023/05/26 09:55:32;;;;;;;8.23;2.70;;;;;;;;;;4989461;28;20456;-79
2023/05/26 09:58:05;;;;;;;15.43;3.40;;;;;;;;;;4985452;28;20612;-80
2023/05/26 10:03:47;;;;;;;15.43;4.30;;;;;;;;;;4973061;28;20464;-80
2023/05/26 10:06:16;;;;;;;10.60;3.03;;;;;;;;;;4975215;28;20453;-79
2023/05/26 10:08:47;;;;;;;11.00;2.70;;;;;;;;;;4981466;28;20889;-80
2023/05/26 10:11:15;;;;;;;13.43;4.87;;;;;;;;;;4979607;28;20477;-79
2023/05/26 10:13:43;;;;;;;12.87;3.47;;;;;;;;;;4981855;28;20891;-79
2023/05/26 10:16:12;;;;;;;8.30;2.80;;;;;;;;;;4982705;28;20949;-79
2023/05/26 10:18:41;;;;;;;10.83;4.70;;;;;;;;;;4983778;28;20497;-80
2023/05/26 10:21:12;;;;;;;10.40;3.23;;;;;;;;;;4984783;28;20454;-80
2023/05/26 10:23:43;;;;;;;15.83;3.40;;;;;;;;;;4983107;28;20462;-79
2023/05/26 10:26:14;;;;;;;9.67;2.30;;;;;;;;;;4989478;28;20457;-79
2023/05/26 10:28:45;;;;;;;14.50;2.70;;;;;;;;;;4984668;28;20548;-78
2023/05/26 10:31:37;;;;;;;11.13;3.00;;;;;;;;;;4977180;28;20541;-80
2023/05/26 10:39:35;;;;;;;19.67;3.60;;;;;;;;;;4994354;28;20464;-80
2023/05/26 10:42:02;;;;;;;17.87;3.30;;;;;;;;;;4996597;28;20249;-81
2023/05/26 10:44:43;;;;;;;14.20;4.60;;;;;;;;;;5002625;28;20531;-80
2023/05/26 10:47:16;;;;;;;7.63;2.90;;;;;;;;;;4995383;28;20492;-80
2023/05/26 10:49:53;;;;;;;10.40;2.07;;;;;;;;;;5001009;28;20487;-80
2023/05/26 10:52:20;;;;;;;23.20;3.57;;;;;;;;;;4997480;28;20531;-80
2023/05/26 10:54:51;;;;;;;12.03;3.37;;;;;;;;;;4999176;28;20449;-79
2023/05/26 10:57:31;;;;;;;11.90;3.17;;;;;;;;;;4995573;28;21002;-80
2023/05/26 10:59:59;;;;;;;11.63;2.97;;;;;;;;;;4993894;28;20456;-80
2023/05/26 11:02:26;;;;;;;10.87;2.63;;;;;;;;;;4998464;28;20552;-83
2023/05/26 11:04:54;;;;;;;12.70;3.53;;;;;;;;;;4996060;28;20864;-80
2023/05/26 11:07:26;;;;;;;10.07;2.97;;;;;;;;;;5003322;28;20926;-81
2023/05/26 11:10:07;;;;;;;14.93;3.93;;;;;;;;;;5000669;28;20467;-80
2023/05/26 11:12:34;;;;;;;16.37;2.97;;;;;;;;;;4996961;28;20484;-79
2023/05/26 11:15:17;;;;;;;10.23;3.13;;;;;;;;;;4995697;28;20465;-79
2023/05/26 11:17:44;;;;;;;14.40;3.43;;;;;;;;;;4996772;28;20472;-80
2023/05/26 11:20:17;;;;;;;15.73;3.10;;;;;;;;;;4995055;28;20788;-80
2023/05/26 11:22:44;;;;;;;13.87;5.17;;;;;;;;;;4994515;28;20441;-80
2023/05/26 11:25:41;;;;;;;17.33;3.30;;;;;;;;;;4988466;28;20460;-80
2023/05/26 11:28:17;;;;;;;13.90;3.53;;;;;;;;;;4994878;28;20687;-79
2023/05/26 11:30:45;;;;;;;14.87;3.47;;;;;;;;;;4993817;28;20484;-80
2023/05/26 11:33:14;;;;;;;9.97;3.20;;;;;;;;;;4997706;28;20537;-80
2023/05/26 11:35:42;;;;;;;10.37;3.00;;;;;;;;;;4994900;28;20460;-82
2023/05/26 11:38:10;;;;;;;16.57;4.20;;;;;;;;;;4999252;28;20480;-80
2023/05/26 11:40:38;;;;;;;11.23;3.20;;;;;;;;;;4993222;28;20500;-80
2023/05/26 11:43:06;;;;;;;18.70;2.97;;;;;;;;;;5000754;28;20460;-79
2023/05/26 11:45:36;;;;;;;15.87;4.73;;;;;;;;;;4995818;28;20528;-80
2023/05/26 11:48:04;;;;;;;18.13;4.67;;;;;;;;;;4997897;28;20693;-79
2023/05/26 11:50:32;;;;;;;12.67;3.43;;;;;;;;;;4997143;28;20524;-80
2023/05/26 11:53:00;;;;;;;11.10;3.97;;;;;;;;;;4990979;28;20559;-79
2023/05/26 11:56:02;;;;;;;13.87;4.17;;;;;;;;;;4992492;28;20547;-79
2023/05/26 11:58:33;;;;;;;10.13;3.00;;;;;;;;;;5001084;28;21202;-80
2023/05/26 12:01:02;;;;;;;13.37;3.90;;;;;;;;;;4996971;28;20449;-78
2023/05/26 12:03:33;;;;;;;12.87;4.00;;;;;;;;;;4993000;28;20485;-78
2023/05/26 12:06:10;;;;;;;9.87;2.87;;;;;;;;;;4987157;28;20457;-79
2023/05/26 12:09:06;;;;;;;10.03;3.30;;;;;;;;;;5003012;28;20853;-79
2023/05/26 12:11:37;;;;;;;12.50;3.63;;;;;;;;;;4999074;28;20472;-80
2023/05/26 12:14:13;;;;;;;12.90;3.57;;;;;;;;;;5002520;28;20463;-79
2023/05/26 12:16:58;;;;;;;10.97;4.00;;;;;;;;;;5017426;28;20897;-79
2023/05/26 12:19:30;;;;;;;17.83;3.90;;;;;;;;;;4992486;28;20931;-81
2023/05/26 12:22:04;;;;;;;9.27;3.17;;;;;;;;;;4998421;28;20544;-79
2023/05/26 12:24:33;;;;;;;14.03;4.10;;;;;;;;;;4998341;28;20879;-79
2023/05/26 12:27:06;;;;;;;14.30;3.53;;;;;;;;;;4981892;28;20492;-80
2023/05/26 12:29:38;;;;;;;13.47;4.27;;;;;;;;;;4994527;28;20540;-80
2023/05/26 12:32:09;;;;;;;8.33;2.90;;;;;;;;;;4990305;28;20456;-80
2023/05/26 12:34:38;;;;;;;9.67;3.50;;;;;;;;;;5003760;28;21250;-80
2023/05/26 12:37:05;;;;;;;13.00;3.97;;;;;;;;;;4998210;28;20442;-80
2023/05/26 12:39:33;;;;;;;10.17;3.03;;;;;;;;;;5000678;28;20502;-80
2023/05/26 12:42:01;;;;;;;15.80;3.47;;;;;;;;;;4997554;28;21067;-79
2023/05/26 12:44:45;;;;;;;12.70;4.03;;;;;;;;;;4995760;28;20496;-79
2023/05/26 12:47:14;;;;;;;11.40;3.53;;;;;;;;;;4995752;28;20484;-79
2023/05/26 12:49:46;;;;;;;17.23;3.97;;;;;;;;;;4994077;28;20499;-79
2023/05/26 12:52:14;;;;;;;9.73;3.40;;;;;;;;;;4996228;28;20457;-80
2023/05/26 12:54:44;;;;;;;12.23;3.27;;;;;;;;;;5008793;28;20468;-80
2023/05/26 12:57:15;;;;;;;10.30;3.80;;;;;;;;;;5005200;28;20456;-79
2023/05/26 13:03:00;;;;;;;15.37;4.00;;;;;;;;;;4995955;28;20453;-79
2023/05/26 13:05:28;;;;;;;11.23;3.27;;;;;;;;;;5003925;28;21100;-79
2023/05/26 13:07:57;;;;;;;17.63;5.20;;;;;;;;;;4996577;28;20449;-80
2023/05/26 13:10:27;;;;;;;11.13;5.10;;;;;;;;;;4991813;28;20492;-83
2023/05/26 13:13:06;;;;;;;19.70;3.30;;;;;;;;;;5003485;28;20455;-79
2023/05/26 13:15:34;;;;;;;20.83;4.60;;;;;;;;;;5003334;28;20448;-82
2023/05/26 13:18:01;;;;;;;14.80;4.27;;;;;;;;;;5020863;28;20467;-79
2023/05/26 13:20:34;;;;;;;10.70;3.73;;;;;;;;;;5005070;28;20507;-80
2023/05/26 13:23:01;;;;;;;14.80;4.10;;;;;;;;;;5005012;28;20527;-80
2023/05/26 13:25:29;;;;;;;13.70;3.70;;;;;;;;;;5007830;28;20524;-82
2023/05/26 13:27:57;;;;;;;13.13;4.80;;;;;;;;;;5002715;28;20460;-78
2023/05/26 13:30:52;;;;;;;12.00;4.30;;;;;;;;;;5001705;28;20487;-79
2023/05/26 13:33:23;;;;;;;14.70;4.50;;;;;;;;;;5000851;28;20466;-80
2023/05/26 13:35:53;;;;;;;12.90;3.60;;;;;;;;;;5000972;28;20460;-81
2023/05/26 13:38:20;;;;;;;16.83;4.43;;;;;;;;;;5005668;28;20464;-79
2023/05/26 13:40:47;;;;;;;15.67;4.40;;;;;;;;;;5002301;28;20456;-80
2023/05/26 13:43:18;;;;;;;11.90;4.03;;;;;;;;;;4982083;28;20467;-81
2023/05/26 13:45:46;;;;;;;10.97;4.37;;;;;;;;;;5002121;28;21040;-80
2023/05/26 13:48:14;;;;;;;15.20;5.60;;;;;;;;;;4994940;28;20485;-81
2023/05/26 13:50:48;;;;;;;14.67;4.67;;;;;;;;;;5000796;28;20503;-80
2023/05/26 13:53:19;;;;;;;20.93;5.53;;;;;;;;;;4993955;28;20530;-79
2023/05/26 13:55:51;;;;;;;16.20;4.63;;;;;;;;;;4999499;28;20507;-80
2023/05/26 13:58:19;;;;;;;16.63;6.17;;;;;;;;;;4997880;28;20552;-78
2023/05/26 14:00:46;;;;;;;12.00;4.40;;;;;;;;;;5000510;28;20475;-80
2023/05/26 14:03:14;;;;;;;19.83;5.90;;;;;;;;;;5002552;28;20453;-81
2023/05/26 14:05:43;;;;;;;16.10;5.40;;;;;;;;;;5003618;28;20472;-81
2023/05/26 14:08:10;;;;;;;14.23;5.40;;;;;;;;;;5004551;28;20471;-80
2023/05/26 14:10:44;;;;;;;12.27;4.73;;;;;;;;;;5012984;28;20448;-78
2023/05/26 14:13:39;;;;;;;13.53;5.20;;;;;;;;;;5000330;28;20508;-81
2023/05/26 14:16:10;;;;;;;20.03;5.00;;;;;;;;;;5010596;28;20459;-81
2023/05/26 14:18:45;;;;;;;16.57;5.27;;;;;;;;;;5005337;28;20966;-78
2023/05/26 14:21:13;;;;;;;13.57;4.57;;;;;;;;;;5006148;28;20527;-82
2023/05/26 14:23:42;;;;;;;17.70;4.73;;;;;;;;;;4999262;28;20480;-79
2023/05/26 14:26:44;;;;;;;10.87;5.13;;;;;;;;;;4996548;28;20704;-78
2023/05/26 14:29:21;;;;;;;13.40;4.30;;;;;;;;;;4996620;28;20479;-79
2023/05/26 14:31:52;;;;;;;14.10;5.00;;;;;;;;;;5012187;28;20451;-79
2023/05/26 14:34:20;;;;;;;12.93;4.80;;;;;;;;;;5011049;28;20459;-79
2023/05/26 14:36:47;;;;;;;12.77;4.33;;;;;;;;;;5007516;28;20464;-79
2023/05/26 14:39:18;;;;;;;12.60;4.30;;;;;;;;;;5006641;28;20488;-79
2023/05/26 14:41:48;;;;;;;12.90;6.10;;;;;;;;;;5003542;28;20485;-82
2023/05/26 14:44:20;;;;;;;10.10;4.00;;;;;;;;;;5002510;28;20446;-80
2023/05/26 14:46:48;;;;;;;10.60;3.47;;;;;;;;;;5006925;28;20521;-80
2023/05/26 14:49:18;;;;;;;16.83;4.63;;;;;;;;;;4991794;28;20461;-81
2023/05/26 14:51:45;;;;;;;15.50;5.13;;;;;;;;;;5003594;28;20460;-80
2023/05/26 14:54:13;;;;;;;13.60;4.60;;;;;;;;;;4999906;28;20530;-80
2023/05/26 14:56:40;;;;;;;10.93;3.93;;;;;;;;;;5007399;28;20464;-81
2023/05/26 14:59:10;;;;;;;16.77;3.57;;;;;;;;;;4992804;28;20503;-79
2023/05/26 15:01:58;;;;;;;9.87;2.80;;;;;;;;;;5002332;28;20469;-81
2023/05/26 15:04:31;;;;;;;10.87;3.63;;;;;;;;;;4996529;28;20444;-81
2023/05/26 15:07:00;;;;;;;18.03;3.70;;;;;;;;;;5004440;28;20491;-79
2023/05/26 15:09:27;;;;;;;13.00;4.10;;;;;;;;;;5003065;28;20552;-80
2023/05/26 15:11:54;;;;;;;19.60;4.20;;;;;;;;;;5019540;28;20911;-81
2023/05/26 15:14:23;;;;;;;11.47;3.93;;;;;;;;;;5013651;28;20452;-80
2023/05/26 15:16:50;;;;;;;12.77;4.73;;;;;;;;;;5003341;28;20448;-81
2023/05/26 15:19:18;;;;;;;17.13;4.67;;;;;;;;;;5002319;28;20484;-81
2023/05/26 15:21:45;;;;;;;17.57;3.97;;;;;;;;;;4998061;28;20469;-80
2023/05/26 15:24:17;;;;;;;20.47;4.90;;;;;;;;;;4984909;28;20461;-81
2023/05/26 15:26:45;;;;;;;9.97;4.80;;;;;;;;;;4996854;28;20460;-80
2023/05/26 15:29:20;;;;;;;13.37;3.53;;;;;;;;;;4991332;28;20559;-79
2023/05/26 15:31:51;;;;;;;12.77;3.83;;;;;;;;;;5000255;28;20464;-79
2023/05/26 15:34:20;;;;;;;16.77;4.00;;;;;;;;;;4992011;28;20532;-80
2023/05/26 15:36:51;;;;;;;13.70;4.17;;;;;;;;;;4985024;28;21126;-81
2023/05/26 15:39:26;;;;;;;14.80;3.30;;;;;;;;;;5001735;28;20488;-80
2023/05/26 15:41:53;;;;;;;12.20;4.90;;;;;;;;;;5002526;28;20484;-81
2023/05/26 15:44:20;;;;;;;16.30;4.50;;;;;;;;;;4999236;28;20464;-82
2023/05/26 15:46:47;;;;;;;13.63;3.43;;;;;;;;;;5000936;28;20565;-81
2023/05/26 15:49:16;;;;;;;16.03;3.60;;;;;;;;;;5001806;28;20500;-81
2023/05/26 15:51:44;;;;;;;17.43;3.63;;;;;;;;;;5000161;28;20484;-81
2023/05/26 15:54:11;;;;;;;12.37;3.67;;;;;;;;;;5000339;28;20479;-81
2023/05/26 15:56:39;;;;;;;12.60;4.00;;;;;;;;;;5002861;28;20621;-80
2023/05/26 15:59:09;;;;;;;11.60;4.83;;;;;;;;;;5001929;28;20487;-81
2023/05/26 16:01:38;;;;;;;10.93;3.97;;;;;;;;;;4989840;28;20484;-80
2023/05/26 16:04:08;;;;;;;13.33;4.47;;;;;;;;;;5008223;28;20456;-80
2023/05/26 16:06:39;;;;;;;14.50;3.80;;;;;;;;;;4987589;28;20492;-79
2023/05/26 16:09:07;;;;;;;9.97;4.33;;;;;;;;;;5001033;28;20543;-81
2023/05/26 16:11:34;;;;;;;14.60;3.77;;;;;;;;;;5001291;28;20460;-81
2023/05/26 16:14:02;;;;;;;10.73;3.57;;;;;;;;;;4996426;28;20452;-80
2023/05/26 16:16:30;;;;;;;14.57;3.53;;;;;;;;;;4995576;28;20461;-82
2023/05/26 16:19:13;;;;;;;15.67;4.30;;;;;;;;;;5003129;28;20962;-81
2023/05/26 16:21:43;;;;;;;12.33;3.80;;;;;;;;;;4996838;28;20559;-81
2023/05/26 16:24:16;;;;;;;14.23;3.73;;;;;;;;;;4995931;28;20459;-79
2023/05/26 16:26:45;;;;;;;10.23;3.13;;;;;;;;;;4994052;28;20461;-81
2023/05/26 16:29:15;;;;;;;10.50;3.13;;;;;;;;;;4986191;28;20457;-80
2023/05/26 16:31:47;;;;;;;12.07;3.70;;;;;;;;;;4992562;28;20461;-80
2023/05/26 16:34:14;;;;;;;11.90;4.03;;;;;;;;;;5000058;28;20488;-80
2023/05/26 16:36:42;;;;;;;10.07;3.10;;;;;;;;;;4996023;28;20523;-81
2023/05/26 16:39:16;;;;;;;17.20;4.60;;;;;;;;;;4999431;28;20557;-79
2023/05/26 16:41:47;;;;;;;9.13;3.63;;;;;;;;;;4991056;28;20559;-80
2023/05/26 16:44:18;;;;;;;10.93;3.23;;;;;;;;;;4996686;28;20464;-81
2023/05/26 16:46:51;;;;;;;9.67;3.07;;;;;;;;;;4999294;28;20460;-81
2023/05/26 16:49:19;;;;;;;11.87;3.40;;;;;;;;;;4998310;28;20465;-80
2023/05/26 16:51:47;;;;;;;9.80;3.60;;;;;;;;;;5005847;28;20449;-80
2023/05/26 16:54:16;;;;;;;11.93;3.50;;;;;;;;;;4999135;28;20456;-79
2023/05/26 16:56:43;;;;;;;10.43;3.03;;;;;;;;;;5001250;28;20456;-79
2023/05/26 16:59:17;;;;;;;14.10;3.60;;;;;;;;;;5000305;28;20445;-82
2023/05/26 17:01:47;;;;;;;15.80;5.13;;;;;;;;;;5001282;28;20553;-82
2023/05/26 17:04:19;;;;;;;10.70;4.97;;;;;;;;;;5003730;28;20464;-81
2023/05/26 17:06:51;;;;;;;19.20;4.50;;;;;;;;;;5002471;28;20456;-82
2023/05/26 17:09:27;;;;;;;9.10;3.80;;;;;;;;;;5003910;28;20551;-80
2023/05/26 17:12:01;;;;;;;10.40;3.33;;;;;;;;;;4996161;28;20883;-80
2023/05/26 17:14:32;;;;;;;12.63;4.40;;;;;;;;;;5000444;28;20744;-80
2023/05/26 17:16:59;;;;;;;13.13;4.27;;;;;;;;;;5001244;28;20457;-80
2023/05/26 17:19:26;;;;;;;10.47;2.80;;;;;;;;;;4999613;28;20448;-81
2023/05/26 17:21:55;;;;;;;15.63;4.33;;;;;;;;;;5003613;28;20466;-79
2023/05/26 17:24:23;;;;;;;9.90;3.13;;;;;;;;;;5007139;28;20461;-79
2023/05/26 17:26:51;;;;;;;9.40;3.50;;;;;;;;;;5009213;28;20467;-81
2023/05/26 17:29:19;;;;;;;10.10;3.40;;;;;;;;;;5004889;28;20874;-81
2023/05/26 17:31:48;;;;;;;9.70;2.93;;;;;;;;;;5006816;28;20452;-81
2023/05/26 17:34:16;;;;;;;10.67;3.60;;;;;;;;;;5004751;28;20495;-81
2023/05/26 17:36:44;;;;;;;10.50;3.60;;;;;;;;;;5005321;28;20451;-82
2023/05/26 17:39:18;;;;;;;9.03;3.53;;;;;;;;;;5005735;28;20531;-79
2023/05/26 17:41:47;;;;;;;11.23;3.20;;;;;;;;;;5004112;28;20521;-81
2023/05/26 17:44:19;;;;;;;8.03;3.20;;;;;;;;;;5005276;28;20444;-81
2023/05/26 17:46:46;;;;;;;14.67;3.40;;;;;;;;;;5006596;28;20456;-81
2023/05/26 17:49:15;;;;;;;12.53;3.87;;;;;;;;;;5004270;28;20476;-81
2023/05/26 17:51:42;;;;;;;12.47;3.57;;;;;;;;;;5003271;28;20905;-81
2023/05/26 17:54:10;;;;;;;8.73;3.00;;;;;;;;;;5000894;28;20460;-79
2023/05/26 17:56:37;;;;;;;13.90;3.20;;;;;;;;;;4998855;28;20469;-80
2023/05/26 17:59:09;;;;;;;9.73;3.80;;;;;;;;;;5002030;28;20516;-81
2023/05/26 18:01:36;;;;;;;10.20;3.30;;;;;;;;;;5001580;28;20498;-82
2023/05/26 18:04:04;;;;;;;19.50;4.97;;;;;;;;;;5002915;28;20484;-80
2023/05/26 18:06:31;;;;;;;11.90;3.63;;;;;;;;;;5003427;28;20460;-82
2023/05/26 18:08:59;;;;;;;11.23;3.30;;;;;;;;;;5000399;28;20457;-83
2023/05/26 18:11:26;;;;;;;9.77;3.53;;;;;;;;;;5002955;28;20445;-80
2023/05/26 18:13:53;;;;;;;8.87;3.53;;;;;;;;;;5001701;28;20756;-82
2023/05/26 18:16:24;;;;;;;14.40;3.57;;;;;;;;;;5003504;28;20493;-80
2023/05/26 18:18:51;;;;;;;19.70;4.63;;;;;;;;;;4984130;28;20477;-83
2023/05/26 18:21:19;;;;;;;7.77;2.90;;;;;;;;;;5003704;28;20488;-80
2023/05/26 18:23:46;;;;;;;16.60;4.20;;;;;;;;;;5002739;28;20475;-80
2023/05/26 18:26:14;;;;;;;13.00;3.23;;;;;;;;;;5005023;28;20488;-81
2023/05/26 18:28:41;;;;;;;11.47;3.40;;;;;;;;;;5003773;28;20445;-80
2023/05/26 18:31:09;;;;;;;15.57;6.13;;;;;;;;;;5003804;28;20475;-80
2023/05/26 18:33:37;;;;;;;18.33;4.87;;;;;;;;;;5006423;28;20454;-81
2023/05/26 18:36:05;;;;;;;10.93;3.37;;;;;;;;;;5005962;28;20541;-82
2023/05/26 18:38:32;;;;;;;15.60;4.20;;;;;;;;;;5006294;28;20464;-81
2023/05/26 18:41:00;;;;;;;9.93;3.20;;;;;;;;;;5011606;28;20899;-82
2023/05/26 18:43:28;;;;;;;9.87;2.77;;;;;;;;;;5003072;28;20551;-80
2023/05/26 18:45:55;;;;;;;6.40;2.83;;;;;;;;;;4989136;28;20456;-81
2023/05/26 18:48:24;;;;;;;8.77;3.50;;;;;;;;;;5006606;28;20461;-82
2023/05/26 18:50:52;;;;;;;9.77;2.93;;;;;;;;;;5001932;28;20460;-82
2023/05/26 18:53:20;;;;;;;10.83;3.43;;;;;;;;;;5005122;28;20460;-82
2023/05/26 18:55:47;;;;;;;16.83;3.60;;;;;;;;;;5005965;28;20428;-80
2023/05/26 18:58:15;;;;;;;11.90;3.57;;;;;;;;;;5003999;28;20453;-80
2023/05/26 19:00:42;;;;;;;9.87;3.30;;;;;;;;;;5007469;28;20898;-83
2023/05/26 19:03:11;;;;;;;12.20;2.67;;;;;;;;;;5001164;28;20448;-81
2023/05/26 19:05:38;;;;;;;10.73;4.03;;;;;;;;;;5003846;28;20500;-81
2023/05/26 19:08:07;;;;;;;10.90;4.73;;;;;;;;;;5002296;28;20658;-80
2023/05/26 19:10:35;;;;;;;11.97;3.20;;;;;;;;;;4994782;28;20445;-81
2023/05/26 19:13:02;;;;;;;10.47;3.37;;;;;;;;;;5002553;28;20838;-81
2023/05/26 19:15:29;;;;;;;9.70;3.03;;;;;;;;;;5005287;28;20452;-81
2023/05/26 19:17:57;;;;;;;10.63;3.97;;;;;;;;;;5000895;28;20461;-82
2023/05/26 19:20:24;;;;;;;11.00;4.60;;;;;;;;;;5003014;28;20519;-82
2023/05/26 19:22:51;;;;;;;10.60;3.23;;;;;;;;;;5003486;28;20452;-82
2023/05/26 19:25:20;;;;;;;7.40;2.90;;;;;;;;;;5002440;28;20725;-80
2023/05/26 19:27:47;;;;;;;12.40;3.60;;;;;;;;;;5002683;28;20468;-81
2023/05/26 19:30:16;;;;;;;10.40;3.17;;;;;;;;;;5001993;28;20747;-82
2023/05/26 19:32:43;;;;;;;13.40;3.90;;;;;;;;;;5002548;28;20745;-80